createdAt,value
2019-01-08T00:01:53.586Z,4.42
2019-01-08T00:04:23.091Z,4.29
2019-01-08T00:06:52.283Z,4.39
2019-01-08T00:09:21.160Z,4.42
2019-01-08T00:11:50.064Z,4.35
2019-01-08T00:14:19.282Z,4.48
2019-01-08T00:16:48.390Z,4.46
2019-01-08T00:19:17.279Z,4.53
2019-01-08T00:21:46.439Z,4.52
2019-01-08T00:24:15.599Z,4.50
2019-01-08T00:26:44.473Z,4.50
2019-01-08T00:29:13.366Z,4.53
2019-01-08T00:31:42.275Z,4.55
2019-01-08T00:34:11.711Z,4.52
2019-01-08T00:36:40.589Z,4.51
2019-01-08T00:39:09.465Z,4.55
2019-01-08T00:41:38.350Z,4.46
2019-01-08T00:44:07.218Z,4.48
2019-01-08T00:46:36.176Z,4.53
2019-01-08T00:49:05.349Z,4.52
2019-01-08T00:51:34.249Z,4.51
2019-01-08T00:54:03.142Z,4.59
2019-01-08T00:56:32.024Z,4.63
2019-01-08T00:59:01.516Z,4.50
2019-01-08T01:01:30.760Z,4.73
2019-01-08T01:03:59.890Z,4.58
2019-01-08T01:06:28.770Z,4.66
2019-01-08T01:08:57.652Z,4.57
2019-01-08T01:11:26.559Z,4.56
2019-01-08T01:13:55.770Z,4.66
2019-01-08T01:16:24.968Z,4.46
2019-01-08T01:18:54.158Z,4.60
2019-01-08T01:21:23.354Z,4.66
2019-01-08T01:23:52.552Z,4.53
2019-01-08T01:26:21.750Z,4.59
2019-01-08T01:28:50.946Z,4.63
2019-01-08T01:31:19.812Z,4.72
2019-01-08T01:33:49.023Z,4.65
2019-01-08T01:36:18.245Z,4.53
2019-01-08T01:38:47.420Z,4.70
2019-01-08T01:41:16.347Z,4.65
2019-01-08T01:43:45.215Z,4.66
2019-01-08T01:46:14.386Z,4.74
2019-01-08T01:48:43.587Z,4.69
2019-01-08T01:51:12.496Z,4.62
2019-01-08T01:53:41.368Z,4.64
2019-01-08T01:56:10.270Z,4.62
2019-01-08T01:58:39.412Z,4.65
2019-01-08T02:01:08.653Z,4.65
2019-01-08T02:03:38.149Z,4.72
2019-01-08T02:06:07.343Z,4.67
2019-01-08T02:08:36.213Z,4.73
2019-01-08T02:11:05.112Z,4.67
2019-01-08T02:13:34.303Z,4.75
2019-01-08T02:16:03.188Z,4.75
2019-01-08T02:18:32.057Z,4.86
2019-01-08T02:21:01.190Z,4.85
2019-01-08T02:23:30.069Z,4.78
2019-01-08T02:25:58.937Z,4.90
2019-01-08T02:28:27.803Z,4.84
2019-01-08T02:30:56.659Z,4.86
2019-01-08T02:33:25.531Z,4.84
2019-01-08T02:35:54.393Z,4.84
2019-01-08T02:38:23.618Z,4.85
2019-01-08T02:40:52.485Z,4.83
2019-01-08T02:43:22.039Z,4.85
2019-01-08T02:45:50.913Z,4.85
2019-01-08T02:48:19.780Z,4.93
2019-01-08T02:50:48.661Z,4.91
2019-01-08T02:53:17.519Z,4.93
2019-01-08T02:55:46.372Z,4.91
2019-01-08T02:58:15.276Z,4.89
2019-01-08T03:00:44.156Z,4.85
2019-01-08T03:03:13.032Z,4.92
2019-01-08T03:05:42.204Z,4.97
2019-01-08T03:08:11.400Z,4.96
2019-01-08T03:10:40.596Z,4.84
2019-01-08T03:13:09.474Z,4.90
2019-01-08T03:15:38.332Z,4.96
2019-01-08T03:18:07.208Z,4.85
2019-01-08T03:20:36.369Z,4.82
2019-01-08T03:23:05.568Z,4.95
2019-01-08T03:25:34.434Z,4.93
2019-01-08T03:28:03.355Z,4.95
2019-01-08T03:30:32.254Z,5.02
2019-01-08T03:33:01.421Z,4.91
2019-01-08T03:35:30.610Z,4.93
2019-01-08T03:37:59.811Z,4.96
2019-01-08T03:40:29.006Z,5.07
2019-01-08T03:42:57.895Z,5.02
2019-01-08T03:45:26.769Z,5.16
2019-01-08T03:47:55.662Z,5.19
2019-01-08T03:50:24.526Z,5.06
2019-01-08T03:52:53.385Z,5.06
2019-01-08T03:55:22.242Z,5.09
2019-01-08T04:00:29.929Z,5.18
2019-01-08T04:02:59.151Z,5.33
2019-01-08T04:05:28.013Z,5.08
2019-01-08T04:07:57.240Z,4.88
2019-01-08T04:10:26.422Z,5.05
2019-01-08T04:12:55.317Z,5.03
2019-01-08T04:15:24.527Z,5.01
2019-01-08T04:17:53.692Z,4.95
2019-01-08T04:20:22.576Z,5.00
2019-01-08T04:22:51.691Z,4.90
2019-01-08T04:25:20.565Z,5.04
2019-01-08T04:27:49.420Z,5.12
2019-01-08T04:30:18.308Z,5.09
2019-01-08T04:32:47.862Z,5.08
2019-01-08T04:35:16.731Z,5.02
2019-01-08T04:37:45.948Z,4.88
2019-01-08T04:40:15.163Z,4.90
2019-01-08T04:42:44.029Z,4.96
2019-01-08T04:45:14.727Z,4.97
2019-01-08T04:47:41.780Z,4.93
2019-01-08T04:50:10.995Z,4.93
2019-01-08T04:52:40.202Z,5.05
2019-01-08T04:55:09.080Z,4.96
2019-01-08T04:57:38.300Z,4.94
2019-01-08T05:00:07.786Z,4.96
2019-01-08T05:02:36.655Z,4.82
2019-01-08T05:05:05.566Z,4.90
2019-01-08T05:07:34.433Z,4.96
2019-01-08T05:10:03.655Z,4.99
2019-01-08T05:12:32.518Z,4.80
2019-01-08T05:15:01.749Z,4.84
2019-01-08T05:17:30.617Z,4.68
2019-01-08T05:19:59.831Z,4.90
2019-01-08T05:22:28.995Z,4.93
2019-01-08T05:24:57.876Z,4.91
2019-01-08T05:27:27.100Z,4.89
2019-01-08T05:29:56.247Z,4.81
2019-01-08T05:32:25.386Z,4.86
2019-01-08T05:34:54.584Z,4.93
2019-01-08T05:37:23.808Z,4.83
2019-01-08T05:39:52.973Z,4.86
2019-01-08T05:42:22.122Z,4.88
2019-01-08T05:44:51.271Z,4.92
2019-01-08T05:47:20.145Z,4.95
2019-01-08T05:49:49.029Z,5.03
2019-01-08T05:52:17.898Z,5.01
2019-01-08T06:00:06.529Z,5.03
2019-01-08T06:02:35.755Z,5.01
2019-01-08T06:07:43.758Z,5.12
2019-01-08T06:10:12.782Z,5.09
2019-01-08T06:15:20.229Z,5.08
2019-01-08T06:20:27.940Z,5.22
2019-01-08T06:25:36.059Z,5.01
2019-01-08T06:28:04.942Z,5.00
2019-01-08T06:30:33.810Z,5.01
2019-01-08T06:33:02.661Z,5.04
2019-01-08T06:35:31.897Z,5.11
2019-01-08T06:38:00.746Z,4.98
2019-01-08T06:40:29.981Z,5.06
2019-01-08T06:42:59.252Z,4.95
2019-01-08T06:45:28.108Z,5.04
2019-01-08T06:47:57.325Z,5.16
2019-01-08T06:50:26.206Z,4.97
2019-01-08T06:52:55.320Z,5.05
2019-01-08T06:55:24.286Z,5.13
2019-01-08T06:57:53.505Z,5.10
2019-01-08T07:00:22.779Z,5.11
2019-01-08T07:02:51.913Z,5.23
2019-01-08T07:05:21.266Z,5.22
2019-01-08T07:07:50.495Z,5.22
2019-01-08T07:10:19.815Z,5.21
2019-01-08T07:12:48.668Z,5.11
2019-01-08T07:17:56.014Z,5.20
2019-01-08T07:20:25.170Z,5.16
2019-01-08T07:22:54.019Z,5.29
2019-01-08T07:25:23.136Z,5.55
2019-01-08T07:27:52.249Z,5.61
2019-01-08T07:30:21.118Z,5.55
2019-01-08T07:32:50.247Z,5.56
2019-01-08T07:35:19.428Z,5.51
2019-01-08T07:37:48.303Z,5.42
2019-01-08T07:40:17.179Z,5.32
2019-01-08T07:42:46.031Z,5.27
2019-01-08T07:45:15.194Z,5.18
2019-01-08T07:47:44.388Z,5.18
2019-01-08T07:50:13.584Z,5.14
2019-01-08T07:52:42.452Z,5.10
2019-01-08T07:55:11.596Z,5.15
2019-01-08T07:57:40.754Z,5.15
2019-01-08T08:00:09.654Z,5.12
2019-01-08T08:02:38.521Z,5.13
2019-01-08T08:05:07.740Z,5.09
2019-01-08T08:07:36.603Z,5.18
2019-01-08T08:10:06.399Z,5.00
2019-01-08T08:12:35.288Z,5.07
2019-01-08T08:15:04.296Z,5.01
2019-01-08T08:17:33.187Z,5.10
2019-01-08T08:20:02.048Z,5.01
2019-01-08T08:22:30.909Z,4.88
2019-01-08T08:25:00.100Z,4.79
2019-01-08T08:27:29.235Z,4.81
2019-01-08T08:29:58.107Z,4.75
2019-01-08T08:32:26.964Z,4.75
2019-01-08T08:34:55.836Z,4.71
2019-01-08T08:37:25.051Z,4.72
2019-01-08T08:39:53.919Z,4.68
2019-01-08T08:42:22.812Z,4.71
2019-01-08T08:44:51.673Z,4.79
2019-01-08T08:47:20.887Z,4.86
2019-01-08T08:49:49.758Z,4.83
2019-01-08T08:52:18.628Z,4.85
2019-01-08T08:54:47.496Z,4.92
2019-01-08T08:57:16.614Z,4.96
2019-01-08T08:59:46.089Z,5.05
2019-01-08T09:02:16.010Z,4.99
2019-01-08T09:04:44.130Z,4.98
2019-01-08T09:07:13.365Z,5.03
2019-01-08T09:09:42.502Z,5.06
2019-01-08T09:12:11.373Z,5.00
2019-01-08T09:14:40.222Z,4.98
2019-01-08T09:17:09.400Z,5.02
2019-01-08T09:19:38.267Z,5.04
2019-01-08T09:22:07.142Z,5.01
2019-01-08T09:24:35.996Z,5.08
2019-01-08T09:27:04.889Z,5.12
2019-01-08T09:29:34.055Z,5.16
2019-01-08T09:32:02.953Z,5.19
2019-01-08T09:34:31.833Z,5.17
2019-01-08T09:37:00.720Z,5.17
2019-01-08T09:39:29.888Z,5.21
2019-01-08T09:41:58.750Z,5.26
2019-01-08T09:44:27.601Z,5.28
2019-01-08T09:46:56.540Z,5.41
2019-01-08T09:49:26.200Z,5.46
2019-01-08T09:51:54.875Z,5.32
2019-01-08T09:54:23.741Z,5.30
2019-01-08T09:56:52.631Z,5.37
2019-01-08T09:59:21.498Z,5.43
2019-01-08T10:01:50.736Z,5.47
2019-01-08T10:04:19.935Z,5.58
2019-01-08T10:06:48.808Z,5.67
2019-01-08T10:09:17.667Z,5.67
2019-01-08T10:11:46.535Z,5.76
2019-01-08T10:14:15.725Z,5.82
2019-01-08T10:16:44.590Z,5.69
2019-01-08T10:19:13.450Z,5.66
2019-01-08T10:21:42.322Z,5.83
2019-01-08T10:24:11.205Z,5.84
2019-01-08T10:26:40.103Z,5.82
2019-01-08T10:29:08.966Z,5.87
2019-01-08T10:31:37.841Z,5.81
2019-01-08T10:34:06.693Z,5.90
2019-01-08T10:36:35.891Z,5.86
2019-01-08T10:39:06.758Z,5.92
2019-01-08T10:41:35.649Z,5.80
2019-01-08T10:44:04.812Z,5.82
2019-01-08T10:49:12.497Z,6.07
2019-01-08T10:51:41.714Z,5.99
2019-01-08T10:54:10.574Z,6.14
2019-01-08T10:56:39.444Z,6.07
2019-01-08T10:59:08.299Z,6.08
2019-01-08T11:01:40.645Z,6.11
2019-01-08T11:04:06.055Z,6.15
2019-01-08T11:06:34.930Z,6.23
2019-01-08T11:09:04.132Z,6.16
2019-01-08T11:14:11.511Z,6.09
2019-01-08T11:16:40.361Z,6.21
2019-01-08T11:19:09.220Z,6.20
2019-01-08T11:21:38.132Z,6.29
2019-01-08T11:24:06.979Z,6.20
2019-01-08T11:26:35.853Z,6.11
2019-01-08T11:29:04.983Z,6.22
2019-01-08T11:34:12.525Z,6.16
2019-01-08T11:39:20.459Z,6.27
2019-01-08T11:44:28.117Z,6.17
2019-01-08T11:46:57.001Z,6.20
2019-01-08T11:49:25.873Z,6.17
2019-01-08T11:51:55.071Z,6.28
2019-01-08T11:54:24.286Z,6.15
2019-01-08T11:56:53.157Z,6.20
2019-01-08T11:59:22.038Z,6.18
2019-01-08T12:01:57.167Z,6.15
2019-01-08T12:04:20.432Z,6.09
2019-01-08T12:06:49.320Z,6.14
2019-01-08T12:09:18.537Z,6.07
2019-01-08T12:11:47.419Z,5.93
2019-01-08T12:14:16.309Z,6.22
2019-01-08T12:16:45.225Z,6.26
2019-01-08T12:19:14.452Z,6.30
2019-01-08T12:21:43.316Z,6.32
2019-01-08T12:24:12.488Z,6.27
2019-01-08T12:26:41.356Z,6.11
2019-01-08T12:29:10.245Z,6.04
2019-01-08T12:31:39.128Z,6.09
2019-01-08T12:34:07.991Z,6.25
2019-01-08T12:36:36.859Z,6.22
2019-01-08T12:39:07.147Z,6.42
2019-01-08T12:41:36.361Z,6.44
2019-01-08T12:44:05.337Z,6.36
2019-01-08T12:49:12.708Z,6.26
2019-01-08T12:51:41.573Z,6.27
2019-01-08T12:54:10.720Z,6.25
2019-01-08T12:56:39.586Z,6.36
2019-01-08T12:59:08.938Z,6.14
2019-01-08T13:01:37.803Z,6.15
2019-01-08T13:04:06.994Z,6.25
2019-01-08T13:06:35.885Z,6.27
2019-01-08T13:09:05.876Z,6.22
2019-01-08T13:14:13.915Z,6.10
2019-01-08T13:16:44.007Z,6.28
2019-01-08T13:19:12.000Z,6.26
2019-01-08T13:21:40.957Z,6.25
2019-01-08T13:24:10.183Z,6.31
2019-01-08T13:26:39.352Z,6.24
2019-01-08T13:29:08.228Z,6.28
2019-01-08T13:31:37.362Z,6.27
2019-01-08T13:34:06.237Z,6.24
2019-01-08T13:39:13.608Z,6.34
2019-01-08T13:44:21.275Z,6.34
2019-01-08T13:46:50.123Z,6.29
2019-01-08T13:49:19.585Z,6.33
2019-01-08T13:51:48.449Z,6.29
2019-01-08T13:54:17.638Z,6.23
2019-01-08T13:56:46.495Z,6.30
2019-01-08T13:59:15.712Z,6.25
2019-01-08T14:01:44.575Z,6.23
2019-01-08T14:04:13.431Z,6.17
2019-01-08T14:06:42.286Z,6.20
2019-01-08T14:09:11.155Z,6.25
2019-01-08T14:11:40.004Z,6.26
2019-01-08T14:14:08.884Z,6.34
2019-01-08T14:16:38.051Z,6.39
2019-01-08T14:19:06.918Z,6.34
2019-01-08T14:21:35.790Z,6.34
2019-01-08T14:24:04.918Z,6.40
2019-01-08T14:26:33.772Z,6.31
2019-01-08T14:31:41.416Z,6.34
2019-01-08T14:36:49.120Z,6.37
2019-01-08T14:39:18.426Z,6.25
2019-01-08T14:41:47.278Z,6.24
2019-01-08T14:46:57.130Z,6.33
2019-01-08T14:49:26.064Z,6.31
2019-01-08T14:51:55.256Z,6.37
2019-01-08T14:54:24.528Z,6.36
2019-01-08T14:56:53.656Z,6.30
2019-01-08T14:59:22.845Z,6.34
2019-01-08T15:01:51.700Z,6.29
2019-01-08T15:04:20.913Z,6.37
2019-01-08T15:06:49.855Z,6.39
2019-01-08T15:09:21.205Z,6.41
2019-01-08T15:14:29.324Z,6.37
2019-01-08T15:16:58.206Z,6.35
2019-01-08T15:19:27.348Z,6.45
2019-01-08T15:21:56.872Z,6.47
2019-01-08T15:24:25.782Z,6.42
2019-01-08T15:26:54.689Z,6.38
2019-01-08T15:29:24.085Z,6.36
2019-01-08T15:34:32.306Z,6.43
2019-01-08T15:37:01.922Z,6.35
2019-01-08T15:42:09.672Z,6.35
2019-01-08T15:44:38.587Z,6.44
2019-01-08T19:57:00.643Z,3.53
2019-01-08T19:59:29.510Z,3.51
2019-01-08T20:01:58.381Z,3.57
2019-01-08T20:07:06.439Z,3.53
2019-01-08T20:12:14.368Z,3.40
2019-01-08T20:14:43.222Z,3.49
2019-01-08T20:17:12.098Z,3.55
2019-01-08T20:19:40.940Z,3.65
2019-01-08T20:22:10.681Z,3.66
2019-01-08T20:27:17.184Z,3.71
2019-01-08T20:29:46.394Z,3.77
2019-01-08T20:32:15.901Z,3.67
2019-01-08T20:34:45.094Z,3.58
2019-01-08T20:37:14.294Z,3.53
2019-01-08T20:39:43.497Z,3.56
2019-01-08T20:42:12.357Z,3.59
2019-01-08T20:44:41.544Z,3.63
2019-01-08T20:49:48.906Z,3.65
2019-01-08T20:52:17.781Z,3.67
2019-01-08T20:54:46.966Z,3.61
2019-01-08T20:57:15.832Z,3.56
2019-01-08T20:59:44.711Z,3.55
2019-01-08T21:07:31.997Z,3.50
2019-01-08T21:10:00.860Z,3.55
2019-01-08T21:12:30.066Z,3.54
2019-01-08T21:14:58.919Z,3.43
2019-01-08T21:17:27.800Z,3.32
2019-01-08T21:19:56.639Z,3.37
2019-01-08T21:22:25.760Z,3.28
2019-01-08T21:24:54.609Z,3.23
2019-01-08T21:27:23.963Z,3.22
2019-01-08T21:29:53.020Z,3.30
2019-01-08T21:35:00.387Z,3.26
2019-01-08T21:37:29.613Z,3.17
2019-01-08T21:39:58.478Z,3.12
2019-01-08T21:42:27.340Z,3.14
2019-01-08T21:44:56.209Z,3.14
2019-01-08T21:47:25.077Z,3.13
2019-01-08T21:49:53.939Z,3.14
2019-01-08T21:52:23.152Z,3.29
2019-01-08T21:54:51.991Z,3.18
2019-01-08T21:57:21.121Z,3.21
2019-01-08T21:59:50.313Z,3.34
2019-01-08T22:02:19.181Z,3.32
2019-01-08T22:04:52.901Z,3.42
2019-01-08T22:07:17.306Z,3.30
2019-01-08T22:09:46.493Z,3.11
2019-01-08T22:14:53.910Z,3.13
2019-01-08T22:17:23.297Z,3.18
2019-01-08T22:19:52.392Z,3.17
2019-01-08T22:22:21.250Z,3.14
2019-01-08T22:24:50.105Z,3.12
2019-01-08T22:27:18.957Z,3.22
2019-01-08T22:29:48.154Z,3.33
2019-01-08T22:32:17.360Z,3.28
2019-01-08T22:34:46.216Z,3.12
2019-01-08T22:37:15.440Z,2.99
2019-01-08T22:39:44.316Z,3.06
2019-01-08T22:42:13.177Z,3.03
2019-01-08T22:44:42.299Z,3.03
2019-01-08T22:47:11.173Z,2.93
2019-01-08T22:49:40.019Z,2.74
2019-01-08T22:52:09.480Z,2.74
2019-01-08T22:54:38.374Z,2.89
2019-01-08T22:59:46.291Z,2.94
2019-01-08T23:02:15.170Z,2.89
2019-01-08T23:04:44.367Z,2.90
2019-01-08T23:07:13.561Z,2.96
2019-01-08T23:09:43.326Z,2.98
2019-01-08T23:12:12.566Z,3.04
2019-01-08T23:14:41.441Z,3.04
2019-01-08T23:17:10.301Z,2.96
2019-01-08T23:19:39.152Z,2.91
2019-01-08T23:22:08.066Z,3.01
2019-01-08T23:24:36.932Z,3.17
2019-01-08T23:27:05.812Z,3.00
2019-01-08T23:29:35.001Z,3.01
2019-01-08T23:32:03.868Z,3.14
2019-01-08T23:34:32.708Z,3.05
2019-01-08T23:37:01.857Z,3.11
2019-01-08T23:39:30.972Z,3.17
2019-01-08T23:44:38.674Z,3.14
2019-01-08T23:47:07.544Z,3.18
2019-01-08T23:49:36.377Z,3.10
2019-01-08T23:52:17.769Z,2.94
2019-01-08T23:54:46.626Z,3.06
2019-01-08T23:57:16.271Z,3.05
2019-01-08T23:59:45.114Z,2.96
